Hicks Airfield Weather

No METAR data is available for Hicks Airfield, and nearby Alliance Airport's METAR data is commonly used by area pilots. Weather infomation is also available on 126.925 mhz.

  • Current KAFW METAR
    (5.8nm NE) VFR
    Raw Text: KAFW 171853Z 31004KT 10SM BKN045 BKN150 OVC250 32/22 A3000 RMK AO2 SLP140 OCNL LTGIC DSNT S CB DSNT S MOV SE T03220217
    Wind: 310° @ 4kts
    Visibility: 10+sm
    Clouds (AGL): BKN at 4500ft
    Temperature: 32.2°C
    Dew Point: 21.7°C
    Altimeter: 30.00 inHg
  • Current KAFW TAF
    (5.8nm NE)
    Raw Text: KAFW 171806Z 1718/1818 23008KT P6SM VCTS FEW040 BKN120CB FM172000 28007KT P6SM VCTS SCT060CB TEMPO 1721/1724 01020KT 5SM -TSRA BKN040CB FM180200 01010KT P6SM BKN100 FM180700 34007KT P6SM VCTS BKN060CB FM181100 01006KT P6SM BKN060